Allerton, New York
Current Conditions -  °F | °C
As of 9:51 PM on Saturday 25 Oct 2014 (Local Time) from KLGA Reporting Station
Few Clouds Few Clouds  
Wind Chill: 63°   Ceiling: Unl
Heat Index: 63°   Visibility: 10mi
Dew Point: 43°   Wind: 17mph
Humidity: 48%   Direction: 220°SW
Pressure: 29.59"   Gusts: 25mph
Location:  40.8778°N, 73.8721°W
Report Text: KLGA 260151Z 22015G22KT 10SM FEW250 17/06 A2959 RMK AO2 SLP020 T01720061
Loading
Personal Weather Stations






























Interactive Weather Map New forecast layout! Learn more

10-Day Weather Forecast

Advertisements
Track Severe Weather on mobile